sensor_id;sensor_type;location;lat;lon;timestamp;P1;durP1;ratioP1;P2;durP2;ratioP2
29688;SDS011;16600;47.444;8.334;2023-06-22T00:00:33;10.45;;;6.65;;
29688;SDS011;16600;47.444;8.334;2023-06-22T00:03:02;19.25;;;6.65;;
29688;SDS011;16600;47.444;8.334;2023-06-22T00:05:28;11.77;;;7.15;;
29688;SDS011;16600;47.444;8.334;2023-06-22T00:07:53;9.45;;;6.90;;
29688;SDS011;16600;47.444;8.334;2023-06-22T00:10:19;12.32;;;7.90;;
29688;SDS011;16600;47.444;8.334;2023-06-22T00:12:44;12.25;;;7.43;;
29688;SDS011;16600;47.444;8.334;2023-06-22T00:15:10;13.57;;;6.80;;
29688;SDS011;16600;47.444;8.334;2023-06-22T00:17:35;13.13;;;8.07;;
29688;SDS011;16600;47.444;8.334;2023-06-22T00:20:01;11.30;;;7.50;;
29688;SDS011;16600;47.444;8.334;2023-06-22T00:22:31;10.70;;;7.22;;
29688;SDS011;16600;47.444;8.334;2023-06-22T00:24:57;10.88;;;6.72;;
29688;SDS011;16600;47.444;8.334;2023-06-22T00:27:25;11.35;;;7.70;;
29688;SDS011;16600;47.444;8.334;2023-06-22T00:29:51;8.18;;;5.97;;
29688;SDS011;16600;47.444;8.334;2023-06-22T00:32:26;9.40;;;6.32;;
29688;SDS011;16600;47.444;8.334;2023-06-22T00:34:55;17.92;;;7.60;;
29688;SDS011;16600;47.444;8.334;2023-06-22T00:37:26;12.88;;;7.90;;
29688;SDS011;16600;47.444;8.334;2023-06-22T00:39:55;14.25;;;7.97;;
29688;SDS011;16600;47.444;8.334;2023-06-22T00:42:21;12.32;;;8.95;;
29688;SDS011;16600;47.444;8.334;2023-06-22T00:44:47;16.45;;;8.13;;
29688;SDS011;16600;47.444;8.334;2023-06-22T00:47:14;16.63;;;7.82;;
29688;SDS011;16600;47.444;8.334;2023-06-22T00:49:41;13.77;;;8.43;;
29688;SDS011;16600;47.444;8.334;2023-06-22T00:52:08;12.00;;;7.22;;
29688;SDS011;16600;47.444;8.334;2023-06-22T00:54:49;15.13;;;8.07;;
29688;SDS011;16600;47.444;8.334;2023-06-22T00:57:15;24.15;;;8.95;;
29688;SDS011;16600;47.444;8.334;2023-06-22T00:59:43;17.42;;;8.88;;
29688;SDS011;16600;47.444;8.334;2023-06-22T01:02:10;17.35;;;8.98;;
29688;SDS011;16600;47.444;8.334;2023-06-22T01:04:36;10.63;;;7.82;;
29688;SDS011;16600;47.444;8.334;2023-06-22T01:12:17;19.67;;;7.20;;
29688;SDS011;16600;47.444;8.334;2023-06-22T01:14:47;10.20;;;7.53;;
29688;SDS011;16600;47.444;8.334;2023-06-22T01:17:17;11.38;;;7.70;;
29688;SDS011;16600;47.444;8.334;2023-06-22T01:19:45;10.50;;;6.28;;
29688;SDS011;16600;47.444;8.334;2023-06-22T01:22:15;23.40;;;8.40;;
29688;SDS011;16600;47.444;8.334;2023-06-22T01:24:45;14.75;;;7.50;;
29688;SDS011;16600;47.444;8.334;2023-06-22T01:29:58;13.98;;;7.10;;
29688;SDS011;16600;47.444;8.334;2023-06-22T01:32:28;11.40;;;7.30;;
29688;SDS011;16600;47.444;8.334;2023-06-22T01:34:53;14.68;;;7.93;;
29688;SDS011;16600;47.444;8.334;2023-06-22T01:37:19;11.77;;;7.55;;
29688;SDS011;16600;47.444;8.334;2023-06-22T01:39:45;16.83;;;8.98;;
29688;SDS011;16600;47.444;8.334;2023-06-22T01:42:10;14.77;;;7.68;;
29688;SDS011;16600;47.444;8.334;2023-06-22T01:44:39;18.30;;;7.97;;
29688;SDS011;16600;47.444;8.334;2023-06-22T01:47:08;14.13;;;7.63;;
29688;SDS011;16600;47.444;8.334;2023-06-22T01:49:35;17.63;;;8.15;;
29688;SDS011;16600;47.444;8.334;2023-06-22T01:52:00;15.07;;;7.57;;
29688;SDS011;16600;47.444;8.334;2023-06-22T01:54:27;16.58;;;7.68;;
29688;SDS011;16600;47.444;8.334;2023-06-22T01:56:53;11.75;;;7.88;;
29688;SDS011;16600;47.444;8.334;2023-06-22T01:59:29;13.35;;;7.97;;
29688;SDS011;16600;47.444;8.334;2023-06-22T02:02:00;17.17;;;9.30;;
29688;SDS011;16600;47.444;8.334;2023-06-22T02:04:27;14.00;;;9.05;;
29688;SDS011;16600;47.444;8.334;2023-06-22T02:06:58;11.25;;;7.47;;
29688;SDS011;16600;47.444;8.334;2023-06-22T02:09:25;25.17;;;8.45;;
29688;SDS011;16600;47.444;8.334;2023-06-22T02:11:53;20.38;;;9.98;;
29688;SDS011;16600;47.444;8.334;2023-06-22T02:14:21;15.27;;;9.98;;
29688;SDS011;16600;47.444;8.334;2023-06-22T02:16:47;20.00;;;10.40;;
29688;SDS011;16600;47.444;8.334;2023-06-22T02:19:13;13.70;;;9.85;;
29688;SDS011;16600;47.444;8.334;2023-06-22T02:21:41;21.90;;;10.63;;
29688;SDS011;16600;47.444;8.334;2023-06-22T02:24:07;22.15;;;10.35;;
29688;SDS011;16600;47.444;8.334;2023-06-22T02:26:32;15.32;;;8.85;;
29688;SDS011;16600;47.444;8.334;2023-06-22T02:29:00;17.63;;;9.10;;
29688;SDS011;16600;47.444;8.334;2023-06-22T02:31:25;21.70;;;9.05;;
29688;SDS011;16600;47.444;8.334;2023-06-22T02:33:57;11.35;;;9.38;;
29688;SDS011;16600;47.444;8.334;2023-06-22T02:36:23;20.25;;;9.57;;
29688;SDS011;16600;47.444;8.334;2023-06-22T02:38:49;18.55;;;9.07;;
29688;SDS011;16600;47.444;8.334;2023-06-22T02:41:15;13.13;;;8.45;;
29688;SDS011;16600;47.444;8.334;2023-06-22T02:43:44;17.25;;;9.98;;
29688;SDS011;16600;47.444;8.334;2023-06-22T02:46:10;19.38;;;9.25;;
29688;SDS011;16600;47.444;8.334;2023-06-22T02:48:36;12.05;;;9.10;;
29688;SDS011;16600;47.444;8.334;2023-06-22T02:51:02;31.02;;;10.15;;
29688;SDS011;16600;47.444;8.334;2023-06-22T02:53:27;12.38;;;9.85;;
29688;SDS011;16600;47.444;8.334;2023-06-22T02:55:53;22.73;;;9.38;;
29688;SDS011;16600;47.444;8.334;2023-06-22T02:58:19;15.07;;;10.23;;
29688;SDS011;16600;47.444;8.334;2023-06-22T03:00:45;13.25;;;9.95;;
29688;SDS011;16600;47.444;8.334;2023-06-22T03:03:10;23.13;;;9.50;;
29688;SDS011;16600;47.444;8.334;2023-06-22T03:05:36;12.63;;;9.38;;
29688;SDS011;16600;47.444;8.334;2023-06-22T03:08:02;20.85;;;10.65;;
29688;SDS011;16600;47.444;8.334;2023-06-22T03:10:31;21.42;;;10.30;;
29688;SDS011;16600;47.444;8.334;2023-06-22T03:12:57;15.45;;;10.48;;
29688;SDS011;16600;47.444;8.334;2023-06-22T03:15:23;23.75;;;10.65;;
29688;SDS011;16600;47.444;8.334;2023-06-22T03:17:49;19.98;;;10.82;;
29688;SDS011;16600;47.444;8.334;2023-06-22T03:20:15;15.20;;;10.35;;
29688;SDS011;16600;47.444;8.334;2023-06-22T03:22:41;13.95;;;9.23;;
29688;SDS011;16600;47.444;8.334;2023-06-22T03:25:07;14.30;;;9.50;;
29688;SDS011;16600;47.444;8.334;2023-06-22T03:27:39;36.80;;;11.25;;
29688;SDS011;16600;47.444;8.334;2023-06-22T03:30:07;11.85;;;9.30;;
29688;SDS011;16600;47.444;8.334;2023-06-22T03:32:33;15.60;;;9.70;;
29688;SDS011;16600;47.444;8.334;2023-06-22T03:34:59;15.65;;;8.60;;
29688;SDS011;16600;47.444;8.334;2023-06-22T03:39:50;19.48;;;8.98;;
29688;SDS011;16600;47.444;8.334;2023-06-22T03:42:16;16.00;;;8.73;;
29688;SDS011;16600;47.444;8.334;2023-06-22T03:44:41;21.23;;;8.85;;
29688;SDS011;16600;47.444;8.334;2023-06-22T03:47:07;15.23;;;9.18;;
29688;SDS011;16600;47.444;8.334;2023-06-22T03:49:34;15.77;;;10.10;;
29688;SDS011;16600;47.444;8.334;2023-06-22T03:52:00;13.63;;;9.68;;
29688;SDS011;16600;47.444;8.334;2023-06-22T03:54:28;26.98;;;13.40;;
29688;SDS011;16600;47.444;8.334;2023-06-22T03:56:53;25.75;;;11.35;;
29688;SDS011;16600;47.444;8.334;2023-06-22T03:59:19;13.65;;;9.40;;
29688;SDS011;16600;47.444;8.334;2023-06-22T04:03:03;21.87;;;10.77;;
29688;SDS011;16600;47.444;8.334;2023-06-22T04:05:29;19.13;;;11.70;;
29688;SDS011;16600;47.444;8.334;2023-06-22T04:07:54;12.43;;;8.30;;
29688;SDS011;16600;47.444;8.334;2023-06-22T04:10:20;19.42;;;9.60;;
29688;SDS011;16600;47.444;8.334;2023-06-22T04:12:45;15.77;;;9.25;;
29688;SDS011;16600;47.444;8.334;2023-06-22T04:15:11;17.15;;;8.98;;
29688;SDS011;16600;47.444;8.334;2023-06-22T04:17:37;11.30;;;9.07;;
29688;SDS011;16600;47.444;8.334;2023-06-22T04:20:02;11.93;;;8.77;;
29688;SDS011;16600;47.444;8.334;2023-06-22T04:22:29;14.75;;;8.55;;
29688;SDS011;16600;47.444;8.334;2023-06-22T04:24:54;13.75;;;8.00;;
29688;SDS011;16600;47.444;8.334;2023-06-22T04:27:20;11.73;;;8.52;;
29688;SDS011;16600;47.444;8.334;2023-06-22T04:29:48;19.60;;;8.35;;
29688;SDS011;16600;47.444;8.334;2023-06-22T04:32:16;17.40;;;9.23;;
29688;SDS011;16600;47.444;8.334;2023-06-22T04:34:42;13.50;;;8.50;;
29688;SDS011;16600;47.444;8.334;2023-06-22T04:37:08;13.20;;;8.40;;
29688;SDS011;16600;47.444;8.334;2023-06-22T04:39:33;14.32;;;8.38;;
29688;SDS011;16600;47.444;8.334;2023-06-22T04:41:59;15.70;;;7.38;;
29688;SDS011;16600;47.444;8.334;2023-06-22T04:44:25;10.10;;;6.85;;
29688;SDS011;16600;47.444;8.334;2023-06-22T04:46:55;18.10;;;7.65;;
29688;SDS011;16600;47.444;8.334;2023-06-22T04:49:29;12.13;;;6.80;;
29688;SDS011;16600;47.444;8.334;2023-06-22T04:52:03;16.50;;;7.03;;
29688;SDS011;16600;47.444;8.334;2023-06-22T04:54:29;15.50;;;7.78;;
29688;SDS011;16600;47.444;8.334;2023-06-22T04:56:54;13.38;;;7.18;;
29688;SDS011;16600;47.444;8.334;2023-06-22T04:59:23;17.13;;;7.05;;
29688;SDS011;16600;47.444;8.334;2023-06-22T05:01:54;17.48;;;6.93;;
29688;SDS011;16600;47.444;8.334;2023-06-22T05:04:19;13.68;;;7.63;;
29688;SDS011;16600;47.444;8.334;2023-06-22T05:06:45;12.80;;;6.78;;
29688;SDS011;16600;47.444;8.334;2023-06-22T05:09:10;12.45;;;6.85;;
29688;SDS011;16600;47.444;8.334;2023-06-22T05:11:37;12.38;;;7.38;;
29688;SDS011;16600;47.444;8.334;2023-06-22T05:14:02;12.68;;;5.88;;
29688;SDS011;16600;47.444;8.334;2023-06-22T05:16:28;12.52;;;6.82;;
29688;SDS011;16600;47.444;8.334;2023-06-22T05:18:54;12.20;;;7.15;;
29688;SDS011;16600;47.444;8.334;2023-06-22T05:21:23;10.75;;;6.45;;
29688;SDS011;16600;47.444;8.334;2023-06-22T05:23:50;16.05;;;6.75;;
29688;SDS011;16600;47.444;8.334;2023-06-22T05:26:15;11.65;;;6.65;;
29688;SDS011;16600;47.444;8.334;2023-06-22T05:28:41;12.85;;;7.13;;
29688;SDS011;16600;47.444;8.334;2023-06-22T05:31:07;14.52;;;7.10;;
29688;SDS011;16600;47.444;8.334;2023-06-22T05:33:33;26.15;;;6.00;;
29688;SDS011;16600;47.444;8.334;2023-06-22T05:35:59;13.65;;;5.80;;
29688;SDS011;16600;47.444;8.334;2023-06-22T05:38:24;12.95;;;6.75;;
29688;SDS011;16600;47.444;8.334;2023-06-22T05:40:51;13.10;;;6.53;;
29688;SDS011;16600;47.444;8.334;2023-06-22T05:43:16;14.13;;;5.07;;
29688;SDS011;16600;47.444;8.334;2023-06-22T05:45:42;12.63;;;5.93;;
29688;SDS011;16600;47.444;8.334;2023-06-22T05:48:07;7.72;;;5.28;;
29688;SDS011;16600;47.444;8.334;2023-06-22T05:50:33;9.75;;;6.25;;
29688;SDS011;16600;47.444;8.334;2023-06-22T05:52:58;15.70;;;6.47;;
29688;SDS011;16600;47.444;8.334;2023-06-22T05:55:24;10.00;;;6.05;;
29688;SDS011;16600;47.444;8.334;2023-06-22T05:57:50;19.67;;;5.90;;
29688;SDS011;16600;47.444;8.334;2023-06-22T06:00:15;9.30;;;5.35;;
29688;SDS011;16600;47.444;8.334;2023-06-22T06:02:41;8.68;;;4.78;;
29688;SDS011;16600;47.444;8.334;2023-06-22T06:05:11;14.45;;;5.78;;
29688;SDS011;16600;47.444;8.334;2023-06-22T06:07:39;9.15;;;5.63;;
29688;SDS011;16600;47.444;8.334;2023-06-22T06:10:05;13.60;;;5.70;;
29688;SDS011;16600;47.444;8.334;2023-06-22T06:12:31;9.45;;;4.78;;
29688;SDS011;16600;47.444;8.334;2023-06-22T06:14:57;8.48;;;5.50;;
29688;SDS011;16600;47.444;8.334;2023-06-22T06:17:22;7.18;;;5.50;;
29688;SDS011;16600;47.444;8.334;2023-06-22T06:19:48;10.27;;;6.68;;
29688;SDS011;16600;47.444;8.334;2023-06-22T06:22:13;9.50;;;6.75;;
29688;SDS011;16600;47.444;8.334;2023-06-22T06:24:39;10.82;;;6.10;;
29688;SDS011;16600;47.444;8.334;2023-06-22T06:27:04;10.32;;;6.93;;
29688;SDS011;16600;47.444;8.334;2023-06-22T06:29:30;12.13;;;6.20;;
29688;SDS011;16600;47.444;8.334;2023-06-22T06:31:56;14.50;;;6.60;;
29688;SDS011;16600;47.444;8.334;2023-06-22T06:34:22;13.35;;;7.28;;
29688;SDS011;16600;47.444;8.334;2023-06-22T06:36:48;11.45;;;6.30;;
29688;SDS011;16600;47.444;8.334;2023-06-22T06:39:13;11.80;;;6.70;;
29688;SDS011;16600;47.444;8.334;2023-06-22T06:41:39;13.35;;;6.75;;
29688;SDS011;16600;47.444;8.334;2023-06-22T06:44:13;14.23;;;6.88;;
29688;SDS011;16600;47.444;8.334;2023-06-22T06:46:39;9.18;;;6.40;;
29688;SDS011;16600;47.444;8.334;2023-06-22T06:49:05;11.10;;;6.05;;
29688;SDS011;16600;47.444;8.334;2023-06-22T06:51:30;9.32;;;5.75;;
29688;SDS011;16600;47.444;8.334;2023-06-22T06:53:56;15.60;;;7.63;;
29688;SDS011;16600;47.444;8.334;2023-06-22T06:56:25;13.35;;;6.63;;
29688;SDS011;16600;47.444;8.334;2023-06-22T06:58:50;15.25;;;6.47;;
29688;SDS011;16600;47.444;8.334;2023-06-22T07:01:16;10.43;;;6.20;;
29688;SDS011;16600;47.444;8.334;2023-06-22T07:03:45;19.52;;;7.15;;
29688;SDS011;16600;47.444;8.334;2023-06-22T07:06:14;16.30;;;6.70;;
29688;SDS011;16600;47.444;8.334;2023-06-22T07:08:42;9.82;;;6.30;;
29688;SDS011;16600;47.444;8.334;2023-06-22T07:11:11;14.90;;;7.20;;
29688;SDS011;16600;47.444;8.334;2023-06-22T07:13:37;13.55;;;7.35;;
29688;SDS011;16600;47.444;8.334;2023-06-22T07:16:03;21.70;;;7.35;;
29688;SDS011;16600;47.444;8.334;2023-06-22T07:18:30;16.70;;;8.25;;
29688;SDS011;16600;47.444;8.334;2023-06-22T07:20:56;23.35;;;8.35;;
29688;SDS011;16600;47.444;8.334;2023-06-22T07:23:22;10.55;;;6.95;;
29688;SDS011;16600;47.444;8.334;2023-06-22T07:25:48;18.67;;;7.03;;
29688;SDS011;16600;47.444;8.334;2023-06-22T07:28:15;9.55;;;7.05;;
29688;SDS011;16600;47.444;8.334;2023-06-22T07:30:41;12.30;;;7.07;;
29688;SDS011;16600;47.444;8.334;2023-06-22T07:33:07;24.65;;;7.63;;
29688;SDS011;16600;47.444;8.334;2023-06-22T07:35:33;11.32;;;7.57;;
29688;SDS011;16600;47.444;8.334;2023-06-22T07:37:59;17.02;;;7.78;;
29688;SDS011;16600;47.444;8.334;2023-06-22T07:40:25;13.38;;;7.65;;
29688;SDS011;16600;47.444;8.334;2023-06-22T07:42:54;13.10;;;8.77;;
29688;SDS011;16600;47.444;8.334;2023-06-22T07:45:20;24.73;;;7.43;;
29688;SDS011;16600;47.444;8.334;2023-06-22T07:47:46;12.18;;;7.63;;
29688;SDS011;16600;47.444;8.334;2023-06-22T07:50:13;12.70;;;8.00;;
29688;SDS011;16600;47.444;8.334;2023-06-22T07:52:39;16.70;;;7.97;;
29688;SDS011;16600;47.444;8.334;2023-06-22T07:55:05;9.73;;;7.78;;
29688;SDS011;16600;47.444;8.334;2023-06-22T07:57:31;12.88;;;6.85;;
29688;SDS011;16600;47.444;8.334;2023-06-22T08:00:00;9.65;;;7.47;;
29688;SDS011;16600;47.444;8.334;2023-06-22T08:02:26;10.38;;;7.40;;
29688;SDS011;16600;47.444;8.334;2023-06-22T08:04:52;16.55;;;8.10;;
29688;SDS011;16600;47.444;8.334;2023-06-22T08:07:18;13.88;;;7.38;;
29688;SDS011;16600;47.444;8.334;2023-06-22T08:09:48;9.55;;;7.05;;
29688;SDS011;16600;47.444;8.334;2023-06-22T08:12:15;11.20;;;7.32;;
29688;SDS011;16600;47.444;8.334;2023-06-22T08:14:42;11.68;;;6.75;;
29688;SDS011;16600;47.444;8.334;2023-06-22T08:17:09;11.63;;;7.32;;
29688;SDS011;16600;47.444;8.334;2023-06-22T08:19:36;16.50;;;7.45;;
29688;SDS011;16600;47.444;8.334;2023-06-22T08:22:05;15.90;;;7.78;;
29688;SDS011;16600;47.444;8.334;2023-06-22T08:24:31;15.02;;;7.70;;
29688;SDS011;16600;47.444;8.334;2023-06-22T08:26:57;9.75;;;7.50;;
29688;SDS011;16600;47.444;8.334;2023-06-22T08:29:22;14.25;;;8.60;;
29688;SDS011;16600;47.444;8.334;2023-06-22T08:31:48;18.02;;;8.00;;
29688;SDS011;16600;47.444;8.334;2023-06-22T08:34:14;11.43;;;8.13;;
29688;SDS011;16600;47.444;8.334;2023-06-22T08:36:47;12.27;;;8.40;;
29688;SDS011;16600;47.444;8.334;2023-06-22T08:39:18;16.85;;;8.77;;
29688;SDS011;16600;47.444;8.334;2023-06-22T08:41:45;11.80;;;7.65;;
29688;SDS011;16600;47.444;8.334;2023-06-22T08:44:14;22.20;;;8.32;;
29688;SDS011;16600;47.444;8.334;2023-06-22T08:46:42;13.75;;;8.05;;
29688;SDS011;16600;47.444;8.334;2023-06-22T08:49:08;15.48;;;8.25;;
29688;SDS011;16600;47.444;8.334;2023-06-22T08:51:35;15.68;;;8.25;;
29688;SDS011;16600;47.444;8.334;2023-06-22T08:54:01;19.23;;;9.57;;
29688;SDS011;16600;47.444;8.334;2023-06-22T08:56:27;25.90;;;7.63;;
29688;SDS011;16600;47.444;8.334;2023-06-22T08:58:53;13.73;;;8.88;;
29688;SDS011;16600;47.444;8.334;2023-06-22T09:01:20;21.00;;;7.63;;
29688;SDS011;16600;47.444;8.334;2023-06-22T09:03:49;16.10;;;8.35;;
29688;SDS011;16600;47.444;8.334;2023-06-22T09:06:20;16.15;;;8.00;;
29688;SDS011;16600;47.444;8.334;2023-06-22T09:08:47;12.52;;;8.63;;
29688;SDS011;16600;47.444;8.334;2023-06-22T09:11:13;13.70;;;9.00;;
29688;SDS011;16600;47.444;8.334;2023-06-22T09:13:39;13.52;;;9.70;;
29688;SDS011;16600;47.444;8.334;2023-06-22T09:16:06;14.77;;;9.85;;
29688;SDS011;16600;47.444;8.334;2023-06-22T09:18:35;15.48;;;9.23;;
29688;SDS011;16600;47.444;8.334;2023-06-22T09:21:01;18.13;;;10.18;;
29688;SDS011;16600;47.444;8.334;2023-06-22T09:23:27;12.75;;;8.68;;
29688;SDS011;16600;47.444;8.334;2023-06-22T09:25:53;11.95;;;8.75;;
29688;SDS011;16600;47.444;8.334;2023-06-22T09:28:18;20.08;;;8.20;;
29688;SDS011;16600;47.444;8.334;2023-06-22T09:30:44;17.05;;;9.48;;
29688;SDS011;16600;47.444;8.334;2023-06-22T09:33:10;21.08;;;8.70;;
29688;SDS011;16600;47.444;8.334;2023-06-22T09:35:39;17.60;;;9.13;;
29688;SDS011;16600;47.444;8.334;2023-06-22T09:38:05;11.43;;;7.40;;
29688;SDS011;16600;47.444;8.334;2023-06-22T09:40:31;11.15;;;7.50;;
29688;SDS011;16600;47.444;8.334;2023-06-22T09:43:00;14.55;;;7.82;;
29688;SDS011;16600;47.444;8.334;2023-06-22T09:45:29;12.15;;;8.20;;
29688;SDS011;16600;47.444;8.334;2023-06-22T09:47:55;18.58;;;8.93;;
29688;SDS011;16600;47.444;8.334;2023-06-22T09:50:21;21.73;;;9.20;;
29688;SDS011;16600;47.444;8.334;2023-06-22T09:52:47;12.65;;;7.75;;
29688;SDS011;16600;47.444;8.334;2023-06-22T09:55:20;18.02;;;7.85;;
29688;SDS011;16600;47.444;8.334;2023-06-22T09:57:46;13.00;;;8.27;;
29688;SDS011;16600;47.444;8.334;2023-06-22T10:03:02;15.13;;;7.75;;
29688;SDS011;16600;47.444;8.334;2023-06-22T10:05:28;14.57;;;7.43;;
29688;SDS011;16600;47.444;8.334;2023-06-22T10:07:58;19.15;;;8.23;;
29688;SDS011;16600;47.444;8.334;2023-06-22T10:10:24;19.95;;;8.68;;
29688;SDS011;16600;47.444;8.334;2023-06-22T10:12:56;18.77;;;8.20;;
29688;SDS011;16600;47.444;8.334;2023-06-22T10:15:23;13.93;;;7.80;;
29688;SDS011;16600;47.444;8.334;2023-06-22T10:17:52;11.02;;;6.95;;
29688;SDS011;16600;47.444;8.334;2023-06-22T10:20:18;17.92;;;8.52;;
29688;SDS011;16600;47.444;8.334;2023-06-22T10:22:46;15.15;;;8.23;;
29688;SDS011;16600;47.444;8.334;2023-06-22T10:25:12;11.32;;;7.68;;
29688;SDS011;16600;47.444;8.334;2023-06-22T10:27:38;14.40;;;8.00;;
29688;SDS011;16600;47.444;8.334;2023-06-22T10:30:05;14.18;;;7.38;;
29688;SDS011;16600;47.444;8.334;2023-06-22T10:32:41;18.10;;;8.10;;
29688;SDS011;16600;47.444;8.334;2023-06-22T10:35:14;23.70;;;8.68;;
29688;SDS011;16600;47.444;8.334;2023-06-22T10:37:45;12.00;;;7.93;;
29688;SDS011;16600;47.444;8.334;2023-06-22T10:40:14;17.88;;;9.00;;
29688;SDS011;16600;47.444;8.334;2023-06-22T10:42:40;15.65;;;8.45;;
29688;SDS011;16600;47.444;8.334;2023-06-22T10:45:09;13.35;;;8.23;;
29688;SDS011;16600;47.444;8.334;2023-06-22T10:47:38;13.10;;;7.97;;
29688;SDS011;16600;47.444;8.334;2023-06-22T10:50:04;12.85;;;6.97;;
29688;SDS011;16600;47.444;8.334;2023-06-22T10:52:30;12.20;;;7.63;;
29688;SDS011;16600;47.444;8.334;2023-06-22T10:54:57;13.80;;;7.13;;
29688;SDS011;16600;47.444;8.334;2023-06-22T10:57:23;10.07;;;7.13;;
29688;SDS011;16600;47.444;8.334;2023-06-22T10:59:49;12.65;;;7.80;;
29688;SDS011;16600;47.444;8.334;2023-06-22T11:02:15;15.25;;;7.43;;
29688;SDS011;16600;47.444;8.334;2023-06-22T11:04:45;10.07;;;7.13;;
29688;SDS011;16600;47.444;8.334;2023-06-22T11:07:14;13.25;;;6.95;;
29688;SDS011;16600;47.444;8.334;2023-06-22T11:09:40;13.90;;;7.88;;
29688;SDS011;16600;47.444;8.334;2023-06-22T11:12:08;23.40;;;7.57;;
29688;SDS011;16600;47.444;8.334;2023-06-22T11:14:34;10.05;;;7.43;;
29688;SDS011;16600;47.444;8.334;2023-06-22T11:17:00;13.32;;;7.05;;
29688;SDS011;16600;47.444;8.334;2023-06-22T11:19:26;14.68;;;8.50;;
29688;SDS011;16600;47.444;8.334;2023-06-22T11:21:52;11.73;;;7.85;;
29688;SDS011;16600;47.444;8.334;2023-06-22T11:24:18;10.30;;;7.10;;
29688;SDS011;16600;47.444;8.334;2023-06-22T11:26:50;10.02;;;7.20;;
29688;SDS011;16600;47.444;8.334;2023-06-22T11:29:16;12.40;;;7.53;;
29688;SDS011;16600;47.444;8.334;2023-06-22T11:31:42;15.02;;;7.70;;
29688;SDS011;16600;47.444;8.334;2023-06-22T11:34:08;11.65;;;7.68;;
29688;SDS011;16600;47.444;8.334;2023-06-22T11:36:34;15.27;;;7.80;;
29688;SDS011;16600;47.444;8.334;2023-06-22T11:39:00;14.13;;;8.20;;
29688;SDS011;16600;47.444;8.334;2023-06-22T11:41:27;13.30;;;8.38;;
29688;SDS011;16600;47.444;8.334;2023-06-22T11:43:53;13.63;;;8.48;;
29688;SDS011;16600;47.444;8.334;2023-06-22T11:46:18;13.45;;;7.88;;
29688;SDS011;16600;47.444;8.334;2023-06-22T11:48:45;14.00;;;8.65;;
29688;SDS011;16600;47.444;8.334;2023-06-22T11:51:11;15.32;;;8.38;;
29688;SDS011;16600;47.444;8.334;2023-06-22T11:53:37;19.95;;;9.30;;
29688;SDS011;16600;47.444;8.334;2023-06-22T11:56:03;15.20;;;7.30;;
29688;SDS011;16600;47.444;8.334;2023-06-22T11:58:28;15.25;;;8.48;;
29688;SDS011;16600;47.444;8.334;2023-06-22T12:00:54;9.50;;;6.88;;
29688;SDS011;16600;47.444;8.334;2023-06-22T12:03:20;14.18;;;7.70;;
29688;SDS011;16600;47.444;8.334;2023-06-22T12:05:49;12.52;;;7.57;;
29688;SDS011;16600;47.444;8.334;2023-06-22T12:08:18;16.75;;;7.47;;
29688;SDS011;16600;47.444;8.334;2023-06-22T12:10:44;11.43;;;7.65;;
29688;SDS011;16600;47.444;8.334;2023-06-22T12:13:10;12.40;;;7.85;;
29688;SDS011;16600;47.444;8.334;2023-06-22T12:15:38;21.45;;;7.72;;
29688;SDS011;16600;47.444;8.334;2023-06-22T12:18:08;19.70;;;9.05;;
29688;SDS011;16600;47.444;8.334;2023-06-22T12:20:34;20.38;;;8.98;;
29688;SDS011;16600;47.444;8.334;2023-06-22T12:23:01;19.83;;;8.45;;
29688;SDS011;16600;47.444;8.334;2023-06-22T12:25:27;20.50;;;10.07;;
29688;SDS011;16600;47.444;8.334;2023-06-22T12:27:52;15.07;;;9.57;;
29688;SDS011;16600;47.444;8.334;2023-06-22T12:30:22;14.95;;;9.77;;
29688;SDS011;16600;47.444;8.334;2023-06-22T12:32:48;16.25;;;9.45;;
29688;SDS011;16600;47.444;8.334;2023-06-22T12:35:14;18.48;;;9.02;;
29688;SDS011;16600;47.444;8.334;2023-06-22T12:37:43;12.63;;;9.07;;
29688;SDS011;16600;47.444;8.334;2023-06-22T12:40:10;17.55;;;9.48;;
29688;SDS011;16600;47.444;8.334;2023-06-22T12:42:37;18.40;;;9.73;;
29688;SDS011;16600;47.444;8.334;2023-06-22T12:45:03;17.45;;;9.35;;
29688;SDS011;16600;47.444;8.334;2023-06-22T12:47:33;14.38;;;8.88;;
29688;SDS011;16600;47.444;8.334;2023-06-22T12:50:02;18.27;;;8.30;;
29688;SDS011;16600;47.444;8.334;2023-06-22T12:52:31;25.33;;;8.63;;
29688;SDS011;16600;47.444;8.334;2023-06-22T12:54:57;10.65;;;7.82;;
29688;SDS011;16600;47.444;8.334;2023-06-22T12:57:24;20.05;;;7.50;;
29688;SDS011;16600;47.444;8.334;2023-06-22T12:59:51;13.80;;;7.18;;
29688;SDS011;16600;47.444;8.334;2023-06-22T13:02:20;11.15;;;6.95;;
29688;SDS011;16600;47.444;8.334;2023-06-22T13:04:46;13.93;;;6.13;;
29688;SDS011;16600;47.444;8.334;2023-06-22T13:07:12;12.50;;;6.55;;
29688;SDS011;16600;47.444;8.334;2023-06-22T13:09:38;15.23;;;6.85;;
29688;SDS011;16600;47.444;8.334;2023-06-22T13:12:04;11.55;;;6.63;;
29688;SDS011;16600;47.444;8.334;2023-06-22T13:14:30;18.02;;;6.95;;
29688;SDS011;16600;47.444;8.334;2023-06-22T13:16:59;10.68;;;5.85;;
29688;SDS011;16600;47.444;8.334;2023-06-22T13:19:25;15.77;;;5.57;;
29688;SDS011;16600;47.444;8.334;2023-06-22T13:21:58;13.65;;;5.95;;
29688;SDS011;16600;47.444;8.334;2023-06-22T13:24:24;9.77;;;5.90;;
29688;SDS011;16600;47.444;8.334;2023-06-22T13:26:50;13.45;;;5.78;;
29688;SDS011;16600;47.444;8.334;2023-06-22T13:29:16;18.50;;;8.15;;
29688;SDS011;16600;47.444;8.334;2023-06-22T13:31:42;23.67;;;5.85;;
29688;SDS011;16600;47.444;8.334;2023-06-22T13:34:11;21.17;;;5.55;;
29688;SDS011;16600;47.444;8.334;2023-06-22T13:36:38;13.52;;;6.00;;
29688;SDS011;16600;47.444;8.334;2023-06-22T13:39:04;16.75;;;5.68;;
29688;SDS011;16600;47.444;8.334;2023-06-22T13:41:30;11.18;;;6.07;;
29688;SDS011;16600;47.444;8.334;2023-06-22T13:43:56;10.02;;;6.13;;
29688;SDS011;16600;47.444;8.334;2023-06-22T13:46:24;19.55;;;5.82;;
29688;SDS011;16600;47.444;8.334;2023-06-22T13:48:53;13.68;;;5.18;;
29688;SDS011;16600;47.444;8.334;2023-06-22T13:51:28;8.98;;;5.45;;
29688;SDS011;16600;47.444;8.334;2023-06-22T13:54:00;14.32;;;5.65;;
29688;SDS011;16600;47.444;8.334;2023-06-22T13:56:30;18.70;;;6.03;;
29688;SDS011;16600;47.444;8.334;2023-06-22T13:58:55;21.92;;;6.18;;
29688;SDS011;16600;47.444;8.334;2023-06-22T14:01:21;16.40;;;6.43;;
29688;SDS011;16600;47.444;8.334;2023-06-22T14:03:48;18.58;;;5.78;;
29688;SDS011;16600;47.444;8.334;2023-06-22T14:06:14;16.98;;;6.28;;
29688;SDS011;16600;47.444;8.334;2023-06-22T14:08:40;12.60;;;5.63;;
29688;SDS011;16600;47.444;8.334;2023-06-22T14:11:07;11.75;;;6.82;;
29688;SDS011;16600;47.444;8.334;2023-06-22T14:13:33;17.60;;;7.43;;
29688;SDS011;16600;47.444;8.334;2023-06-22T14:16:01;12.82;;;6.05;;
29688;SDS011;16600;47.444;8.334;2023-06-22T14:18:32;15.13;;;6.57;;
29688;SDS011;16600;47.444;8.334;2023-06-22T14:21:04;19.30;;;6.75;;
29688;SDS011;16600;47.444;8.334;2023-06-22T14:23:30;10.75;;;6.25;;
29688;SDS011;16600;47.444;8.334;2023-06-22T14:25:59;16.17;;;6.60;;
29688;SDS011;16600;47.444;8.334;2023-06-22T14:28:26;17.90;;;6.80;;
29688;SDS011;16600;47.444;8.334;2023-06-22T14:30:52;12.63;;;6.25;;
29688;SDS011;16600;47.444;8.334;2023-06-22T14:33:18;17.38;;;7.35;;
29688;SDS011;16600;47.444;8.334;2023-06-22T14:35:44;15.65;;;7.07;;
29688;SDS011;16600;47.444;8.334;2023-06-22T14:38:10;16.00;;;7.53;;
29688;SDS011;16600;47.444;8.334;2023-06-22T14:40:39;12.70;;;6.78;;
29688;SDS011;16600;47.444;8.334;2023-06-22T14:43:05;16.17;;;6.85;;
29688;SDS011;16600;47.444;8.334;2023-06-22T14:45:31;16.00;;;7.25;;
29688;SDS011;16600;47.444;8.334;2023-06-22T14:47:57;21.88;;;11.90;;